createdAt,value
2019-01-12T00:01:31.953Z,102173.39
2019-01-12T00:04:57.577Z,102168.59
2019-01-12T00:08:23.612Z,102172.20
2019-01-12T00:11:49.234Z,102173.96
2019-01-12T00:15:14.872Z,102169.41
2019-01-12T00:18:40.531Z,102168.41
2019-01-12T00:22:06.398Z,102164.95
2019-01-12T00:25:32.022Z,102163.06
2019-01-12T00:28:57.607Z,102161.23
2019-01-12T00:32:23.191Z,102160.66
2019-01-12T00:35:48.769Z,102161.41
2019-01-12T00:39:14.329Z,102156.95
2019-01-12T00:42:40.254Z,102166.06
2019-01-12T00:46:05.950Z,102158.83
2019-01-12T00:49:31.499Z,102156.23
2019-01-12T00:52:57.025Z,102150.05
2019-01-12T00:56:22.850Z,102149.27
2019-01-12T00:59:48.690Z,102148.41
2019-01-12T01:03:14.280Z,102143.62
2019-01-12T01:06:39.873Z,102153.50
2019-01-12T01:10:07.311Z,102154.12
2019-01-12T01:13:32.895Z,102154.55
2019-01-12T01:16:58.463Z,102145.73
2019-01-12T01:20:24.018Z,102148.35
2019-01-12T01:23:49.568Z,102151.70
2019-01-12T01:27:15.128Z,102145.44
2019-01-12T01:30:40.673Z,102147.75
2019-01-12T01:34:06.248Z,102149.83
2019-01-12T01:37:31.794Z,102145.08
2019-01-12T01:40:57.304Z,102152.28
2019-01-12T01:44:22.878Z,102151.11
2019-01-12T01:47:48.424Z,102156.25
2019-01-12T01:51:13.967Z,102147.83
2019-01-12T01:54:39.503Z,102151.12
2019-01-12T01:58:05.023Z,102149.41
2019-01-12T02:01:30.601Z,102144.81
2019-01-12T02:04:56.155Z,102134.36
2019-01-12T02:08:21.698Z,102138.17
2019-01-12T02:11:47.245Z,102136.21
2019-01-12T02:15:13.206Z,102132.28
2019-01-12T02:18:38.719Z,102118.99
2019-01-12T02:22:04.400Z,102120.95
2019-01-12T02:25:29.953Z,102126.85
2019-01-12T02:28:55.477Z,102125.51
2019-01-12T02:32:21.309Z,102127.02
2019-01-12T02:35:46.851Z,102123.88
2019-01-12T02:39:12.407Z,102116.05
2019-01-12T02:42:37.930Z,102115.31
2019-01-12T02:46:03.483Z,102109.25
2019-01-12T02:49:29.010Z,102113.17
2019-01-12T02:52:54.587Z,102104.23
2019-01-12T02:56:20.118Z,102103.27
2019-01-12T02:59:45.679Z,102099.52
2019-01-12T03:03:11.190Z,102100.33
2019-01-12T03:06:36.747Z,102097.75
2019-01-12T03:10:02.291Z,102093.88
2019-01-12T03:13:27.862Z,102088.73
2019-01-12T03:16:53.393Z,102081.78
2019-01-12T03:20:19.757Z,102081.14
2019-01-12T03:23:45.306Z,102076.91
2019-01-12T03:27:10.837Z,102066.77
2019-01-12T03:30:36.893Z,102060.55
2019-01-12T03:34:02.632Z,102062.08
2019-01-12T03:37:28.205Z,102056.39
2019-01-12T03:40:53.770Z,102056.45
2019-01-12T03:44:19.294Z,102050.03
2019-01-12T03:47:44.877Z,102045.57
2019-01-12T03:51:10.393Z,102044.69
2019-01-12T03:54:36.021Z,102040.64
2019-01-12T03:58:01.598Z,102033.37
2019-01-12T04:01:27.150Z,102031.33
2019-01-12T04:04:52.695Z,102030.48
2019-01-12T04:08:18.232Z,102033.45
2019-01-12T04:11:44.055Z,102031.84
2019-01-12T04:15:10.957Z,102030.33
2019-01-12T04:18:36.531Z,102039.36
2019-01-12T04:22:02.068Z,102023.75
2019-01-12T04:25:33.717Z,102025.40
2019-01-12T04:28:54.864Z,102026.02
2019-01-12T04:32:20.396Z,102026.00
2019-01-12T04:35:46.264Z,102019.49
2019-01-12T04:39:11.811Z,102021.70
2019-01-12T04:42:37.349Z,102019.34
2019-01-12T04:46:02.913Z,102024.97
2019-01-12T04:49:28.458Z,102032.00
2019-01-12T04:52:54.069Z,102027.63
2019-01-12T04:56:19.655Z,102027.86
2019-01-12T04:59:45.496Z,102021.98
2019-01-12T05:03:11.046Z,102018.70
2019-01-12T05:06:36.868Z,102017.27
2019-01-12T05:10:02.379Z,102021.44
2019-01-12T05:13:27.935Z,102010.72
2019-01-12T05:16:53.482Z,102012.16
2019-01-12T05:20:21.421Z,102019.14
2019-01-12T05:23:47.012Z,102016.86
2019-01-12T05:27:12.822Z,102015.89
2019-01-12T05:30:38.385Z,102013.45
2019-01-12T05:34:04.049Z,102004.80
2019-01-12T05:37:29.622Z,102014.05
2019-01-12T05:40:55.364Z,102007.98
2019-01-12T05:44:21.050Z,102015.23
2019-01-12T05:47:46.561Z,102012.84
2019-01-12T05:51:12.114Z,102001.27
2019-01-12T05:54:37.658Z,101997.25
2019-01-12T05:58:03.268Z,101993.08
2019-01-12T06:01:28.811Z,101994.24
2019-01-12T06:04:54.376Z,101992.35
2019-01-12T06:08:19.999Z,101994.70
2019-01-12T06:11:45.581Z,101978.84
2019-01-12T06:15:11.672Z,101972.20
2019-01-12T06:18:37.200Z,101987.88
2019-01-12T06:22:02.738Z,101985.84
2019-01-12T06:25:28.266Z,101986.02
2019-01-12T06:28:53.801Z,101980.48
2019-01-12T06:32:19.342Z,101976.72
2019-01-12T06:35:44.874Z,101966.09
2019-01-12T06:39:11.699Z,101953.77
2019-01-12T06:42:37.236Z,101957.86
2019-01-12T06:46:03.068Z,101950.06
2019-01-12T06:49:28.576Z,101943.73
2019-01-12T06:52:54.176Z,101935.92
2019-01-12T06:56:19.756Z,101939.30
2019-01-12T06:59:45.584Z,101925.95
2019-01-12T07:03:11.096Z,101935.22
2019-01-12T07:06:36.622Z,101942.74
2019-01-12T07:10:02.445Z,101928.36
2019-01-12T07:13:28.243Z,101923.14
2019-01-12T07:16:53.751Z,101925.05
2019-01-12T07:20:19.896Z,101923.30
2019-01-12T07:23:45.400Z,101918.28
2019-01-12T07:27:10.971Z,101915.54
2019-01-12T07:30:36.799Z,101901.55
2019-01-12T07:34:02.298Z,101891.34
2019-01-12T07:37:27.846Z,101886.34
2019-01-12T07:40:53.431Z,101872.00
2019-01-12T07:44:18.978Z,101869.05
2019-01-12T07:47:44.744Z,101855.27
2019-01-12T07:51:10.393Z,101857.86
2019-01-12T07:54:39.371Z,101854.05
2019-01-12T07:58:04.991Z,101847.87
2019-01-12T08:01:30.675Z,101864.83
2019-01-12T08:04:57.487Z,101858.34
2019-01-12T08:08:25.063Z,101863.11
2019-01-12T08:11:50.901Z,101849.77
2019-01-12T08:15:16.549Z,101837.08
2019-01-12T08:18:42.060Z,101846.60
2019-01-12T08:22:07.649Z,101845.33
2019-01-12T08:25:33.199Z,101833.24
2019-01-12T08:28:58.741Z,101821.93
2019-01-12T08:32:24.272Z,101817.65
2019-01-12T08:35:49.773Z,101820.86
2019-01-12T08:39:15.284Z,101826.01
2019-01-12T08:42:40.986Z,101832.25
2019-01-12T08:46:06.673Z,101859.44
2019-01-12T08:49:32.604Z,101842.50
2019-01-12T08:52:58.151Z,101825.72
2019-01-12T08:56:23.714Z,101807.84
2019-01-12T08:59:49.262Z,101810.05
2019-01-12T09:03:14.815Z,101804.36
2019-01-12T09:06:40.532Z,101794.50
2019-01-12T09:10:08.017Z,101785.98
2019-01-12T09:13:33.554Z,101772.36
2019-01-12T09:16:59.463Z,101777.34
2019-01-12T09:20:25.003Z,101780.00
2019-01-12T09:23:50.834Z,101782.13
2019-01-12T09:27:16.328Z,101777.07
2019-01-12T09:30:48.283Z,101773.80
2019-01-12T09:34:09.438Z,101765.59
2019-01-12T09:37:34.949Z,101758.56
2019-01-12T09:41:00.895Z,101749.80
2019-01-12T09:44:26.585Z,101737.24
2019-01-12T09:47:52.555Z,101726.39
2019-01-12T09:51:18.392Z,101722.78
2019-01-12T09:54:43.980Z,101721.44
2019-01-12T09:58:09.544Z,101714.66
2019-01-12T10:01:35.163Z,101706.86
2019-01-12T10:05:00.737Z,101696.25
2019-01-12T10:08:26.463Z,101708.09
2019-01-12T10:11:52.003Z,101696.31
2019-01-12T10:15:17.649Z,101696.72
2019-01-12T10:18:43.397Z,101704.63
2019-01-12T10:22:08.965Z,101699.52
2019-01-12T10:25:34.556Z,101685.41
2019-01-12T10:29:00.115Z,101671.89
2019-01-12T10:40:35.216Z,101643.37
2019-01-12T10:44:00.802Z,101634.31
2019-01-12T10:47:26.323Z,101634.76
2019-01-12T10:50:51.942Z,101632.16
2019-01-12T10:54:18.151Z,101621.59
2019-01-12T10:57:43.906Z,101611.90
2019-01-12T11:01:09.913Z,101605.35
2019-01-12T11:04:35.515Z,101617.06
2019-01-12T11:08:01.120Z,101617.13
2019-01-12T11:11:26.752Z,101604.54
2019-01-12T11:14:52.355Z,101600.77
2019-01-12T11:18:17.952Z,101598.31
2019-01-12T11:21:43.601Z,101581.66
2019-01-12T11:25:11.174Z,101579.23
2019-01-12T11:28:36.785Z,101567.38
2019-01-12T11:32:02.419Z,101562.36
2019-01-12T11:35:28.028Z,101559.09
2019-01-12T11:38:53.623Z,101544.08
2019-01-12T11:42:19.229Z,101535.55
2019-01-12T11:45:44.834Z,101528.66
2019-01-12T11:49:10.576Z,101526.23
2019-01-12T11:52:36.187Z,101514.70
2019-01-12T11:56:03.042Z,101490.52
2019-01-12T11:59:28.590Z,101490.31
2019-01-12T12:02:54.285Z,101468.98
2019-01-12T12:06:19.991Z,101487.47
2019-01-12T12:09:45.649Z,101465.92
2019-01-12T12:13:11.272Z,101467.77
2019-01-12T12:16:36.854Z,101454.73
2019-01-12T12:20:02.568Z,101455.67
2019-01-12T12:23:28.217Z,101435.62
2019-01-12T12:26:53.856Z,101423.05
2019-01-12T12:30:28.684Z,101419.34
2019-01-12T12:33:54.405Z,101405.48
2019-01-12T12:37:20.878Z,101395.90
2019-01-12T12:40:46.457Z,101397.75
2019-01-12T12:44:12.072Z,101371.61
2019-01-12T12:47:37.710Z,101375.59
2019-01-12T12:51:03.316Z,101366.13
2019-01-12T12:54:28.959Z,101364.33
2019-01-12T12:57:54.864Z,101343.48
2019-01-12T13:01:20.512Z,101343.61
2019-01-12T13:04:46.101Z,101334.50
2019-01-12T13:08:11.799Z,101328.35
2019-01-12T13:11:37.694Z,101318.53
2019-01-12T13:15:03.465Z,101312.38
2019-01-12T13:18:29.520Z,101314.73
2019-01-12T13:21:55.162Z,101316.83
2019-01-12T13:25:20.826Z,101312.05
2019-01-12T13:28:46.857Z,101303.19
2019-01-12T13:32:12.475Z,101304.00
2019-01-12T13:35:38.092Z,101287.31
2019-01-12T13:39:10.137Z,101285.24
2019-01-12T13:42:40.698Z,101282.11
2019-01-12T13:46:29.298Z,101280.60
2019-01-12T13:49:57.009Z,101264.29
2019-01-12T13:53:25.028Z,101261.95
2019-01-12T13:56:54.102Z,101265.83
2019-01-12T14:00:29.099Z,101264.21
2019-01-12T14:03:54.703Z,101251.16
2019-01-12T14:07:20.283Z,101248.95
2019-01-12T14:10:46.100Z,101241.21
2019-01-12T14:14:11.740Z,101239.16
2019-01-12T14:17:37.361Z,101239.05
2019-01-12T14:21:03.337Z,101229.45
2019-01-12T14:24:29.264Z,101226.45
2019-01-12T14:27:55.242Z,101223.48
2019-01-12T14:31:20.956Z,101224.50
2019-01-12T14:34:46.561Z,101218.62
2019-01-12T14:38:12.187Z,101208.48
2019-01-12T14:41:37.827Z,101215.05
2019-01-12T14:45:03.472Z,101203.97
2019-01-12T14:48:29.108Z,101205.20
2019-01-12T14:51:58.389Z,101199.33
2019-01-12T14:55:24.381Z,101200.30
2019-01-12T14:58:50.001Z,101198.22
2019-01-12T15:02:15.588Z,101206.58
2019-01-12T15:05:41.679Z,101208.30
2019-01-12T15:09:09.704Z,101212.67
2019-01-12T15:12:35.486Z,101217.72
2019-01-12T15:16:01.100Z,101218.32
2019-01-12T15:19:26.684Z,101217.48
2019-01-12T15:22:52.329Z,101218.86
2019-01-12T15:26:17.924Z,101203.47
2019-01-12T15:29:43.822Z,101205.22
2019-01-12T15:33:11.655Z,101210.08
2019-01-12T15:36:37.359Z,101206.97
2019-01-12T15:40:02.903Z,101205.72
2019-01-12T15:43:28.561Z,101194.58
2019-01-12T15:46:54.432Z,101194.77
2019-01-12T15:50:22.576Z,101186.92
2019-01-12T15:53:48.313Z,101189.70
2019-01-12T15:57:13.926Z,101180.38
2019-01-12T16:00:39.542Z,101181.30
2019-01-12T16:04:05.506Z,101174.92
2019-01-12T16:07:31.086Z,101173.22
2019-01-12T16:10:56.689Z,101179.56
2019-01-12T16:14:22.267Z,101165.42
2019-01-12T16:17:47.865Z,101159.17
2019-01-12T16:21:13.429Z,101165.98
2019-01-12T16:24:39.025Z,101170.98
2019-01-12T16:28:04.612Z,101163.05
2019-01-12T16:31:30.237Z,101145.36
2019-01-12T16:34:56.426Z,101151.44
2019-01-12T16:38:22.044Z,101160.61
2019-01-12T16:41:47.635Z,101163.77
2019-01-12T16:45:13.274Z,101160.28
2019-01-12T16:48:38.876Z,101159.41
2019-01-12T16:52:04.475Z,101153.73
2019-01-12T16:55:30.086Z,101146.59
2019-01-12T16:58:55.993Z,101136.03
2019-01-12T17:02:21.558Z,101141.55
2019-01-12T17:05:47.208Z,101130.38
2019-01-12T17:09:13.674Z,101124.56
2019-01-12T17:12:39.460Z,101124.84
2019-01-12T17:16:05.123Z,101124.62
2019-01-12T17:19:30.706Z,101120.64
2019-01-12T17:22:59.567Z,101120.02
2019-01-12T17:26:26.281Z,101114.48
2019-01-12T17:29:52.130Z,101115.08
2019-01-12T17:33:17.709Z,101116.95
2019-01-12T17:36:43.320Z,101106.49
2019-01-12T17:40:10.964Z,101104.18
2019-01-12T17:43:36.522Z,101101.82
2019-01-12T17:47:02.121Z,101111.69
2019-01-12T17:50:28.901Z,101120.92
2019-01-12T17:53:54.466Z,101118.19
2019-01-12T17:57:20.383Z,101113.23
2019-01-12T18:00:50.942Z,101127.52
2019-01-12T18:04:16.502Z,101133.20
2019-01-12T18:07:42.061Z,101133.54
2019-01-12T18:11:07.618Z,101128.08
2019-01-12T18:14:33.133Z,101132.24
2019-01-12T18:17:58.742Z,101124.61
2019-01-12T18:21:24.571Z,101128.23
2019-01-12T18:24:50.105Z,101135.80
2019-01-12T18:28:15.943Z,101132.09
2019-01-12T18:31:41.527Z,101134.45
2019-01-12T18:35:07.478Z,101128.16
2019-01-12T18:38:33.013Z,101122.71
2019-01-12T18:41:58.577Z,101135.50
2019-01-12T18:45:24.825Z,101126.82
2019-01-12T18:48:50.377Z,101124.45
2019-01-12T18:52:15.977Z,101113.40
2019-01-12T18:55:42.142Z,101116.39
2019-01-12T18:59:07.746Z,101127.83
2019-01-12T19:02:33.670Z,101140.09
2019-01-12T19:05:59.303Z,101122.84
2019-01-12T19:09:24.825Z,101121.91
2019-01-12T19:12:50.382Z,101126.33
2019-01-12T19:16:15.959Z,101122.71
2019-01-12T19:19:41.896Z,101123.10
2019-01-12T19:23:07.408Z,101131.16
2019-01-12T19:26:33.133Z,101120.89
2019-01-12T19:29:58.676Z,101123.62
2019-01-12T19:33:24.248Z,101119.47
2019-01-12T19:36:49.851Z,101110.15
2019-01-12T19:40:18.420Z,101103.20
2019-01-12T19:43:44.084Z,101113.62
2019-01-12T19:47:09.716Z,101110.92
2019-01-12T19:50:35.301Z,101114.01
2019-01-12T19:54:00.988Z,101109.50
2019-01-12T19:57:27.065Z,101106.69
2019-01-12T20:00:53.042Z,101110.84
2019-01-12T20:04:18.585Z,101103.42
2019-01-12T20:07:44.299Z,101097.02
2019-01-12T20:11:09.872Z,101097.11
2019-01-12T20:14:35.424Z,101099.45
2019-01-12T20:18:01.019Z,101096.55
2019-01-12T20:21:26.592Z,101086.77
2019-01-12T20:24:52.499Z,101089.13
2019-01-12T20:28:21.041Z,101092.60
2019-01-12T20:32:35.214Z,101100.28
2019-01-12T20:36:57.698Z,101096.23
2019-01-12T20:41:20.226Z,101083.47
2019-01-12T20:45:58.901Z,101089.05
2019-01-12T20:50:19.808Z,101089.66
2019-01-12T20:55:03.363Z,101095.13
2019-01-12T20:59:28.251Z,101083.98
2019-01-12T21:03:48.864Z,101081.95
2019-01-12T21:08:18.440Z,101074.97
2019-01-12T21:12:59.318Z,101083.03
2019-01-12T21:16:32.166Z,101072.55
2019-01-12T21:19:57.741Z,101065.32
2019-01-12T21:23:23.662Z,101071.98
2019-01-12T21:26:49.615Z,101061.20
2019-01-12T21:30:17.207Z,101057.77
2019-01-12T21:33:42.849Z,101067.18
2019-01-12T21:37:08.392Z,101068.16
2019-01-12T21:40:33.958Z,101066.70
2019-01-12T21:43:59.581Z,101064.97
2019-01-12T21:47:25.230Z,101061.22
2019-01-12T21:50:51.236Z,101052.75
2019-01-12T21:54:16.867Z,101058.84
2019-01-12T21:57:42.759Z,101051.32
2019-01-12T22:01:08.307Z,101057.04
2019-01-12T22:04:33.889Z,101058.91
2019-01-12T22:07:59.461Z,101057.03
2019-01-12T22:11:25.019Z,101058.52
2019-01-12T22:14:50.580Z,101057.87
2019-01-12T22:18:16.141Z,101059.56
2019-01-12T22:21:41.737Z,101061.23
2019-01-12T22:25:09.458Z,101058.20
2019-01-12T22:28:35.184Z,101060.89
2019-01-12T22:32:00.751Z,101062.77
2019-01-12T22:35:26.423Z,101067.61
2019-01-12T22:38:52.030Z,101067.20
2019-01-12T22:42:17.697Z,101071.45
2019-01-12T22:45:43.371Z,101059.70
2019-01-12T22:49:08.935Z,101060.44
2019-01-12T22:52:34.756Z,101061.98
2019-01-12T22:56:00.595Z,101064.99
2019-01-12T22:59:26.175Z,101061.50
2019-01-12T23:02:51.785Z,101059.81
2019-01-12T23:06:17.364Z,101052.52
2019-01-12T23:09:43.217Z,101050.22
2019-01-12T23:13:08.866Z,101056.86
2019-01-12T23:16:34.509Z,101049.92
2019-01-12T23:20:00.240Z,101043.53
2019-01-12T23:23:25.793Z,101033.67
2019-01-12T23:26:51.428Z,101037.32
2019-01-12T23:30:17.428Z,101026.66
2019-01-12T23:33:43.056Z,101032.45
2019-01-12T23:37:08.667Z,101030.52
2019-01-12T23:40:34.224Z,101029.13
2019-01-12T23:44:00.129Z,101039.28
2019-01-12T23:47:25.677Z,101035.25
2019-01-12T23:50:51.248Z,101035.43
2019-01-12T23:54:16.782Z,101034.84
2019-01-12T23:57:42.385Z,101031.70
